Time;durP1;ratioP1;P1;durP2;ratioP2;P2;SDS_P1;SDS_P2;PMS_P1;PMS_P2;Temp;Humidity;BMP_temperature;BMP_pressure;BME280_temperature;BME280_humidity;BME280_pressure;Samples;Min_cycle;Max_cycle;Signal;HPM_P1;HPM_P2
2022/06/12 00:00:23;;;;;;;10.45;3.60;;;13.80;99.90;;;;;;5054004;28;20544;-66
2022/06/12 00:02:49;;;;;;;11.25;3.75;;;13.80;99.90;;;;;;5054151;28;20076;-66
2022/06/12 00:05:17;;;;;;;8.77;3.42;;;13.80;99.90;;;;;;5038133;28;20446;-66
2022/06/12 00:07:43;;;;;;;9.88;4.70;;;13.80;99.90;;;;;;5054872;28;20532;-66
2022/06/12 00:10:10;;;;;;;9.02;3.65;;;13.70;99.90;;;;;;5037658;28;20049;-67
2022/06/12 00:12:37;;;;;;;8.48;3.55;;;13.80;99.90;;;;;;5054650;28;20048;-66
2022/06/12 00:15:04;;;;;;;10.88;4.45;;;13.90;99.90;;;;;;5054513;28;20052;-66
2022/06/12 00:17:30;;;;;;;10.13;4.07;;;13.90;99.90;;;;;;5054412;28;20064;-66
2022/06/12 00:19:55;;;;;;;12.35;3.78;;;13.90;99.90;;;;;;5053078;28;20056;-66
2022/06/12 00:22:21;;;;;;;12.27;4.57;;;13.80;99.90;;;;;;5055522;28;20040;-66
2022/06/12 00:24:47;;;;;;;13.30;4.25;;;13.80;99.90;;;;;;5054077;28;20078;-66
2022/06/12 00:27:13;;;;;;;11.63;4.72;;;14.00;99.90;;;;;;5053324;28;20124;-66
2022/06/12 00:29:39;;;;;;;15.50;4.38;;;14.00;99.90;;;;;;5055257;28;20516;-66
2022/06/12 00:32:16;;;;;;;11.90;3.67;;;13.50;99.90;;;;;;5055063;28;20044;-66
2022/06/12 00:34:47;;;;;;;9.32;3.40;;;14.00;99.90;;;;;;5036800;28;20055;-66
2022/06/12 00:37:14;;;;;;;16.02;5.05;;;14.00;99.90;;;;;;5037182;28;20045;-66
2022/06/12 00:39:41;;;;;;;11.43;4.50;;;13.90;99.90;;;;;;5037531;28;20071;-66
2022/06/12 00:42:19;;;;;;;15.07;5.22;;;14.00;99.90;;;;;;5052642;28;20041;-66
2022/06/12 00:44:44;;;;;;;11.93;4.70;;;14.00;99.90;;;;;;5053948;28;20387;-66
2022/06/12 00:47:13;;;;;;;11.30;5.50;;;13.80;99.90;;;;;;5037069;28;20042;-66
2022/06/12 00:49:44;;;;;;;13.10;6.38;;;13.90;99.90;;;;;;5053038;28;20045;-67
2022/06/12 00:52:27;;;;;;;17.25;6.88;;;13.80;99.90;;;;;;5037270;28;20127;-66
2022/06/12 00:54:59;;;;;;;16.92;7.15;;;13.80;99.90;;;;;;5054457;28;20083;-66
2022/06/12 00:57:26;;;;;;;15.65;5.82;;;13.90;99.90;;;;;;5054968;28;20044;-66
2022/06/12 00:59:59;;;;;;;17.42;5.82;;;13.90;99.90;;;;;;5054349;28;20085;-66
2022/06/12 01:02:31;;;;;;;14.65;5.65;;;13.90;99.90;;;;;;5053055;28;20037;-66
2022/06/12 01:07:46;;;;;;;10.20;4.35;;;13.90;99.90;;;;;;5053645;28;20375;-66
2022/06/12 01:10:15;;;;;;;16.33;4.93;;;13.60;99.90;;;;;;5053680;28;20045;-66
2022/06/12 01:12:48;;;;;;;16.52;5.20;;;13.80;99.90;;;;;;5036719;28;20098;-66
2022/06/12 01:15:28;;;;;;;14.95;5.03;;;13.80;99.90;;;;;;5053653;28;20393;-66
2022/06/12 01:17:56;;;;;;;15.02;4.55;;;13.80;99.90;;;;;;5052058;28;20040;-66
2022/06/12 01:20:27;;;;;;;9.38;4.13;;;13.80;99.90;;;;;;5036718;28;20048;-66
2022/06/12 01:23:16;;;;;;;13.60;4.60;;;14.00;99.90;;;;;;5053088;28;20363;-66
2022/06/12 01:25:57;;;;;;;9.23;3.83;;;13.90;99.90;;;;;;5053262;28;20408;-66
2022/06/12 01:28:51;;;;;;;14.35;4.95;;;13.90;99.90;;;;;;5053395;28;20493;-66
2022/06/12 01:31:42;;;;;;;11.00;4.18;;;13.90;99.90;;;;;;5052099;28;20059;-66
2022/06/12 01:34:44;;;;;;;12.80;4.57;;;13.70;99.90;;;;;;5054131;28;20159;-66
2022/06/12 01:37:18;;;;;;;10.38;3.38;;;13.80;99.90;;;;;;5052223;28;20107;-66
2022/06/12 01:40:05;;;;;;;12.43;4.80;;;13.80;99.90;;;;;;5053987;28;20037;-66
2022/06/12 01:42:57;;;;;;;12.98;4.75;;;13.70;99.90;;;;;;5054185;28;20043;-66
2022/06/12 01:45:31;;;;;;;9.73;5.03;;;13.70;99.90;;;;;;5052206;28;20051;-66
2022/06/12 01:48:28;;;;;;;15.23;4.70;;;13.70;99.90;;;;;;5035762;28;20048;-66
2022/06/12 01:51:15;;;;;;;13.10;4.45;;;13.70;99.90;;;;;;5049019;28;20041;-66
2022/06/12 01:54:13;;;;;;;17.15;4.68;;;13.60;99.90;;;;;;5053849;28;20501;-66
2022/06/12 01:56:48;;;;;;;10.70;4.00;;;13.80;99.90;;;;;;5032354;28;20441;-66
2022/06/12 01:59:13;;;;;;;;;;;13.70;99.90;;;;;;5053582;28;20029;-66
2022/06/12 02:01:43;;;;;;;18.30;4.80;;;13.60;99.90;;;;;;5052802;28;20396;-66
2022/06/12 02:04:20;;;;;;;12.48;4.00;;;13.60;99.90;;;;;;5053629;28;20033;-66
2022/06/12 02:07:10;;;;;;;10.40;3.92;;;13.70;99.90;;;;;;5051699;28;20049;-66
2022/06/12 02:09:42;;;;;;;13.52;4.45;;;13.50;99.90;;;;;;5053635;28;20504;-66
2022/06/12 02:15:07;;;;;;;12.73;4.40;;;13.50;99.90;;;;;;5052797;28;20084;-66
2022/06/12 02:17:51;;;;;;;14.32;4.47;;;13.40;99.90;;;;;;5052211;28;20387;-66
2022/06/12 02:20:19;;;;;;;11.57;4.47;;;13.40;99.90;;;;;;5051301;28;20505;-66
2022/06/12 02:22:49;;;;;;;13.68;4.50;;;13.30;99.90;;;;;;5053187;28;20099;-66
2022/06/12 02:25:30;;;;;;;14.60;4.18;;;13.30;99.90;;;;;;5035513;28;20052;-66
2022/06/12 02:28:12;;;;;;;12.50;5.53;;;13.30;99.90;;;;;;5050506;28;20041;-66
2022/06/12 02:30:42;;;;;;;13.75;4.78;;;13.30;99.90;;;;;;5053252;28;20053;-66
2022/06/12 02:33:20;;;;;;;17.00;4.68;;;13.20;99.90;;;;;;5053157;28;20104;-66
2022/06/12 02:35:58;;;;;;;15.77;4.68;;;13.20;99.90;;;;;;5052048;28;20102;-66
2022/06/12 02:38:29;;;;;;;16.60;4.80;;;13.20;99.90;;;;;;5052180;28;20037;-66
2022/06/12 02:41:09;;;;;;;11.07;4.68;;;13.10;99.90;;;;;;5050201;28;20037;-66
2022/06/12 02:43:40;;;;;;;10.80;4.22;;;13.10;99.90;;;;;;5052995;28;20482;-66
2022/06/12 02:46:14;;;;;;;12.38;4.68;;;13.10;99.90;;;;;;5051563;28;20052;-66
2022/06/12 02:48:40;;;;;;;11.43;3.97;;;13.10;99.90;;;;;;5050964;28;20052;-66
2022/06/12 02:51:29;;;;;;;15.32;5.30;;;13.10;99.90;;;;;;5051218;28;20047;-66
2022/06/12 02:54:24;;;;;;;13.30;4.90;;;13.20;99.90;;;;;;5050483;28;20091;-66
2022/06/12 02:57:12;;;;;;;15.50;5.22;;;13.10;99.90;;;;;;5050359;28;20116;-66
2022/06/12 02:59:46;;;;;;;19.45;5.60;;;13.10;99.90;;;;;;5051873;28;20124;-66
2022/06/12 03:02:16;;;;;;;;;;;13.10;99.90;;;;;;5051857;28;20577;-66
2022/06/12 03:05:02;;;;;;;12.25;5.47;;;13.20;99.90;;;;;;5051474;28;19927;-66
2022/06/12 03:07:32;;;;;;;14.93;4.97;;;13.20;99.90;;;;;;5051444;28;20050;-66
2022/06/12 03:10:05;;;;;;;12.68;4.88;;;13.20;99.90;;;;;;5050140;28;20110;-66
2022/06/12 03:12:32;;;;;;;10.40;4.97;;;13.20;99.90;;;;;;5052812;28;20048;-66
2022/06/12 03:14:59;;;;;;;14.95;4.68;;;13.20;99.90;;;;;;5052180;28;20114;-66
2022/06/12 03:17:25;;;;;;;14.38;4.22;;;13.30;99.90;;;;;;5051502;28;20087;-66
2022/06/12 03:19:54;;;;;;;15.77;4.68;;;13.30;99.90;;;;;;5050651;28;20041;-66
2022/06/12 03:22:19;;;;;;;18.05;5.47;;;13.30;99.90;;;;;;5051424;28;20041;-66
2022/06/12 03:24:50;;;;;;;21.83;4.55;;;13.30;99.90;;;;;;5032888;28;20489;-66
2022/06/12 03:27:34;;;;;;;15.90;4.93;;;13.40;99.90;;;;;;5052307;28;20095;-66
2022/06/12 03:30:30;;;;;;;14.00;4.97;;;13.40;99.90;;;;;;5050743;28;20481;-66
2022/06/12 03:33:07;;;;;;;;;;;13.40;99.90;;;;;;5051074;28;20036;-66
2022/06/12 03:36:03;;;;;;;14.00;4.20;;;13.30;99.90;;;;;;5051039;28;19923;-66
2022/06/12 03:38:38;;;;;;;15.48;4.97;;;13.30;99.90;;;;;;5051354;28;20047;-66
2022/06/12 03:41:29;;;;;;;16.17;5.70;;;13.30;99.90;;;;;;5050303;28;20033;-66
2022/06/12 03:44:14;;;;;;;11.98;4.63;;;13.30;99.90;;;;;;5049592;28;20044;-66
2022/06/12 03:46:48;;;;;;;18.75;5.38;;;13.40;99.90;;;;;;5050932;28;20051;-66
2022/06/12 03:49:34;;;;;;;11.82;4.63;;;13.30;99.90;;;;;;5050786;28;20056;-66
2022/06/12 03:52:17;;;;;;;14.77;4.43;;;13.40;99.90;;;;;;5049599;28;20049;-66
2022/06/12 03:54:46;;;;;;;17.00;4.70;;;13.40;99.90;;;;;;5051898;28;20122;-66
2022/06/12 04:00:17;;;;;;;14.73;4.60;;;13.40;99.90;;;;;;5050842;28;20080;-66
2022/06/12 04:02:46;;;;;;;19.55;5.32;;;13.40;99.90;;;;;;5051620;28;20072;-66
2022/06/12 04:05:20;;;;;;;14.63;4.70;;;13.40;99.90;;;;;;5049793;28;20394;-66
2022/06/12 04:07:49;;;;;;;17.58;4.95;;;13.50;99.90;;;;;;5051767;28;20437;-66
2022/06/12 04:10:19;;;;;;;15.13;4.90;;;13.50;99.90;;;;;;5051919;28;20037;-66
2022/06/12 04:12:45;;;;;;;11.70;4.68;;;13.50;99.90;;;;;;5049510;28;20076;-66
2022/06/12 04:15:21;;;;;;;14.65;5.05;;;13.60;99.90;;;;;;5033704;28;20536;-66
2022/06/12 04:17:47;;;;;;;19.85;4.88;;;13.60;99.90;;;;;;5050253;28;20068;-66
2022/06/12 04:20:17;;;;;;;18.23;5.55;;;13.60;99.90;;;;;;5049667;28;20048;-66
2022/06/12 04:23:03;;;;;;;13.82;4.60;;;13.70;99.90;;;;;;5051663;28;20033;-66
2022/06/12 04:25:37;;;;;;;15.68;5.00;;;13.70;99.90;;;;;;5050606;28;20045;-66
2022/06/12 04:28:17;;;;;;;14.23;4.38;;;13.40;99.90;;;;;;5049259;28;20053;-66
2022/06/12 04:30:43;;;;;;;17.08;5.35;;;13.70;99.90;;;;;;5051220;28;20052;-66
2022/06/12 04:33:29;;;;;;;13.35;4.63;;;13.80;99.90;;;;;;5049242;28;20045;-66
2022/06/12 04:35:58;;;;;;;14.25;4.93;;;14.40;99.90;;;;;;5033368;28;20036;-65
2022/06/12 04:38:27;;;;;;;17.83;4.30;;;14.00;99.90;;;;;;5055370;28;20087;-66
2022/06/12 04:40:53;;;;;;;18.90;5.85;;;14.10;99.90;;;;;;5052928;28;20045;-66
2022/06/12 04:43:19;;;;;;;16.10;5.38;;;14.30;99.90;;;;;;5053987;28;20045;-66
2022/06/12 04:45:45;;;;;;;15.88;5.72;;;14.30;99.90;;;;;;5053796;28;20087;-66
2022/06/12 04:48:21;;;;;;;17.70;5.57;;;14.50;99.90;;;;;;5053126;28;20041;-66
2022/06/12 04:50:46;;;;;;;20.83;6.05;;;14.60;99.90;;;;;;5053564;28;20041;-65
2022/06/12 04:53:12;;;;;;;20.95;5.07;;;14.60;99.90;;;;;;5053645;28;20116;-66
2022/06/12 04:55:38;;;;;;;19.42;5.80;;;14.70;99.90;;;;;;5054135;28;20163;-66
2022/06/12 04:58:05;;;;;;;20.42;5.35;;;14.70;99.90;;;;;;5036720;28;20136;-66
2022/06/12 05:00:34;;;;;;;23.50;6.22;;;14.70;99.90;;;;;;5053891;28;20048;-66
2022/06/12 05:03:00;;;;;;;29.10;7.63;;;14.70;99.90;;;;;;5053659;28;20032;-66
2022/06/12 05:05:28;;;;;;;23.27;7.97;;;;;;;;;;5053591;28;20045;-66
2022/06/12 05:07:54;;;;;;;26.27;6.78;;;15.00;99.90;;;;;;5053360;28;20045;-66
2022/06/12 05:10:20;;;;;;;25.25;6.38;;;15.00;99.90;;;;;;5052748;28;20110;-66
2022/06/12 05:12:46;;;;;;;13.90;5.65;;;15.00;99.90;;;;;;5052668;28;20040;-66
2022/06/12 05:15:13;;;;;;;19.90;6.15;;;;;;;;;;5047259;28;20032;-66
2022/06/12 05:17:41;;;;;;;18.50;6.57;;;15.20;99.90;;;;;;5054903;28;20033;-66
2022/06/12 05:20:14;;;;;;;28.70;6.97;;;15.30;99.90;;;;;;5052787;28;20049;-66
2022/06/12 05:22:40;;;;;;;16.92;5.80;;;;;;;;;;5036270;28;20044;-66
2022/06/12 05:25:06;;;;;;;24.20;6.93;;;15.60;99.90;;;;;;5053370;28;20044;-66
2022/06/12 05:27:32;;;;;;;18.35;5.72;;;15.60;99.90;;;;;;5054658;28;20049;-66
2022/06/12 05:29:59;;;;;;;20.67;6.78;;;15.70;99.90;;;;;;5032089;28;20048;-66
2022/06/12 05:32:25;;;;;;;18.80;7.25;;;15.80;99.90;;;;;;5051326;28;20348;-66
2022/06/12 05:34:51;;;;;;;26.10;8.20;;;16.00;99.90;;;;;;5051875;28;20072;-66
2022/06/12 05:37:17;;;;;;;19.63;7.10;;;;;;;;;;5053331;28;20033;-66
2022/06/12 05:39:43;;;;;;;25.15;6.70;;;;;;;;;;5050320;28;20068;-66
2022/06/12 05:42:09;;;;;;;22.80;6.85;;;16.40;99.90;;;;;;5049935;28;20045;-66
2022/06/12 05:44:36;;;;;;;23.77;7.60;;;16.50;99.90;;;;;;5045772;28;20041;-66
2022/06/12 05:47:02;;;;;;;20.27;6.35;;;16.60;99.90;;;;;;5031264;28;20410;-66
2022/06/12 05:49:28;;;;;;;25.50;8.13;;;;;;;;;;5016796;28;20045;-66
2022/06/12 05:51:54;;;;;;;22.67;7.00;;;;;;;;;;5042420;28;20052;-66
2022/06/12 05:54:20;;;;;;;19.25;6.20;;;;;;;;;;5040301;28;20048;-66
2022/06/12 05:56:46;;;;;;;17.27;6.90;;;;;;;;;;5031950;28;20033;-67
2022/06/12 05:59:13;;;;;;;24.15;7.53;;;;;;;;;;5034713;28;20132;-66
2022/06/12 06:01:43;;;;;;;26.45;8.02;;;;;;;;;;5044734;28;20033;-65
2022/06/12 06:04:10;;;;;;;17.27;6.53;;;;;;;;;;5031809;28;20045;-67
2022/06/12 06:06:43;;;;;;;23.55;7.97;;;;;;;;;;5035140;28;20123;-67
2022/06/12 06:09:09;;;;;;;19.85;7.47;;;17.70;99.90;;;;;;5050031;28;20119;-67
2022/06/12 06:11:35;;;;;;;20.20;6.35;;;17.70;99.90;;;;;;5033203;28;20040;-67
2022/06/12 06:14:01;;;;;;;16.67;5.80;;;17.80;99.90;;;;;;5045159;28;20538;-67
2022/06/12 06:16:27;;;;;;;17.05;5.50;;;17.80;99.90;;;;;;5053943;28;20044;-67
2022/06/12 06:18:54;;;;;;;21.23;7.30;;;;;;;;;;5060020;28;20048;-67
2022/06/12 06:21:20;;;;;;;22.95;6.43;;;18.00;99.90;;;;;;5053886;28;20096;-67
2022/06/12 06:23:46;;;;;;;22.23;6.38;;;18.00;99.90;;;;;;5062349;28;20433;-67
2022/06/12 06:26:12;;;;;;;19.23;6.43;;;;;;;;;;5033345;28;20045;-68
2022/06/12 06:28:39;;;;;;;17.80;5.63;;;;;;;;;;5050909;28;20521;-67
2022/06/12 06:31:06;;;;;;;20.25;6.68;;;;;;;;;;5049353;28;20059;-67
2022/06/12 06:33:32;;;;;;;26.17;7.35;;;;;;;;;;5063206;28;20067;-67
2022/06/12 06:35:58;;;;;;;17.98;6.57;;;;;;;;;;5037747;28;20370;-67
2022/06/12 06:38:24;;;;;;;17.23;6.45;;;;;;;;;;5038778;28;20563;-68
2022/06/12 06:40:50;;;;;;;22.60;6.97;;;18.40;99.90;;;;;;5047193;28;20451;-67
2022/06/12 06:43:15;;;;;;;25.60;7.03;;;18.50;99.90;;;;;;5039373;28;20132;-67
2022/06/12 06:48:28;;;;;;;15.05;6.07;;;18.60;99.90;;;;;;5031144;28;20037;-68
2022/06/12 06:50:54;;;;;;;18.70;5.88;;;18.50;99.90;;;;;;5032558;28;20120;-68
2022/06/12 06:53:21;;;;;;;13.65;5.35;;;18.50;99.90;;;;;;5030498;28;20045;-67
2022/06/12 06:55:47;;;;;;;13.63;5.45;;;;;;;;;;5029678;28;20045;-69
2022/06/12 06:58:15;;;;;;;19.10;6.45;;;;;;;;;;5044996;28;20052;-67
2022/06/12 07:00:42;;;;;;;15.25;4.95;;;;;;;;;;5035263;28;20036;-65
2022/06/12 07:03:08;;;;;;;14.65;4.65;;;;;;;;;;5031390;28;20065;-67
2022/06/12 07:05:35;;;;;;;15.07;4.40;;;;;;;;;;5033998;28;20073;-66
2022/06/12 07:08:01;;;;;;;14.35;5.05;;;;;;;;;;5046850;28;20040;-66
2022/06/12 07:10:28;;;;;;;11.15;4.00;;;;;;;;;;5048116;28;20132;-67
2022/06/12 07:12:55;;;;;;;11.32;4.00;;;;;;;;;;5034104;28;20091;-65
2022/06/12 07:15:22;;;;;;;16.25;3.88;;;19.10;99.90;;;;;;5033847;28;20051;-65
2022/06/12 07:17:49;;;;;;;17.38;4.65;;;19.10;99.90;;;;;;5040048;28;20029;-66
2022/06/12 07:20:17;;;;;;;15.05;4.50;;;19.10;99.90;;;;;;5037379;28;20048;-63
2022/06/12 07:22:43;;;;;;;15.18;4.65;;;19.20;99.90;;;;;;5049741;28;20068;-67
2022/06/12 07:25:10;;;;;;;11.00;3.70;;;19.30;99.90;;;;;;5040761;28;20069;-66
2022/06/12 07:27:38;;;;;;;12.45;3.38;;;19.40;99.90;;;;;;5048755;28;20119;-66
2022/06/12 07:30:06;;;;;;;15.00;4.30;;;19.40;99.90;;;;;;5049440;28;20060;-66
2022/06/12 07:32:33;;;;;;;9.35;3.63;;;19.50;99.90;;;;;;5050021;28;20044;-67
2022/06/12 07:34:59;;;;;;;12.27;4.00;;;19.50;99.90;;;;;;5050235;28;20055;-67
2022/06/12 07:37:25;;;;;;;11.23;3.25;;;19.60;99.90;;;;;;5051298;28;20053;-67
2022/06/12 07:39:51;;;;;;;13.45;4.10;;;19.60;99.90;;;;;;5034600;28;20041;-66
2022/06/12 07:42:16;;;;;;;14.05;3.60;;;19.60;99.90;;;;;;5049739;28;20549;-65
2022/06/12 07:44:42;;;;;;;10.10;3.70;;;19.60;99.90;;;;;;5029384;28;20052;-64
2022/06/12 07:47:08;;;;;;;10.27;3.70;;;19.60;99.90;;;;;;5035446;28;20029;-65
2022/06/12 07:49:34;;;;;;;12.05;3.95;;;19.70;99.90;;;;;;5039848;28;20049;-64
2022/06/12 07:52:03;;;;;;;11.27;3.83;;;19.60;99.90;;;;;;5049901;28;20401;-65
2022/06/12 07:54:30;;;;;;;9.20;2.80;;;19.70;99.90;;;;;;5046628;28;20500;-66
2022/06/12 07:56:56;;;;;;;10.32;3.78;;;19.70;99.90;;;;;;5031672;28;20083;-65
2022/06/12 07:59:23;;;;;;;13.63;4.57;;;19.70;99.90;;;;;;5045011;28;20132;-66
2022/06/12 08:01:50;;;;;;;15.02;3.58;;;19.60;99.90;;;;;;5045364;28;20084;-66
2022/06/12 08:04:16;;;;;;;11.02;3.65;;;19.40;99.90;;;;;;5047278;28;20124;-66
2022/06/12 08:06:42;;;;;;;11.32;3.28;;;19.20;99.90;;;;;;5046742;28;20128;-66
2022/06/12 08:09:10;;;;;;;7.55;2.42;;;19.20;99.90;;;;;;5028296;28;20044;-65
2022/06/12 08:11:36;;;;;;;12.98;3.50;;;19.20;99.90;;;;;;5042050;28;20120;-66
2022/06/12 08:14:02;;;;;;;9.20;2.95;;;19.40;99.90;;;;;;5057978;28;20806;-65
2022/06/12 08:16:29;;;;;;;7.55;2.60;;;19.50;99.90;;;;;;5065349;28;20041;-66
2022/06/12 08:18:54;;;;;;;12.15;2.53;;;19.40;99.90;;;;;;5062170;28;20060;-66
2022/06/12 08:21:21;;;;;;;7.22;2.65;;;19.20;99.90;;;;;;5058961;28;20496;-66
2022/06/12 08:23:48;;;;;;;10.98;3.10;;;19.10;99.90;;;;;;5064930;28;20036;-66
2022/06/12 08:26:24;;;;;;;8.23;3.00;;;19.00;99.90;;;;;;5044085;28;20095;-65
2022/06/12 08:28:57;;;;;;;17.95;3.88;;;19.00;99.90;;;;;;5060787;28;20575;-65
2022/06/12 08:31:27;;;;;;;9.30;2.78;;;19.10;99.90;;;;;;5038519;28;20639;-65
2022/06/12 08:33:57;;;;;;;9.48;2.38;;;19.30;99.90;;;;;;5053962;28;20060;-65
2022/06/12 08:36:24;;;;;;;12.27;3.58;;;19.50;99.90;;;;;;5064149;28;20044;-65
2022/06/12 08:38:50;;;;;;;8.80;3.03;;;19.70;99.90;;;;;;5049866;28;20053;-65
2022/06/12 08:41:39;;;;;;;7.47;2.65;;;19.70;99.90;;;;;;5023801;28;20036;-66
2022/06/12 08:44:05;;;;;;;8.95;2.47;;;;;;;;;;5056282;28;20502;-66
2022/06/12 08:46:45;;;;;;;9.35;2.70;;;;;;;;;;5040978;28;20037;-66
2022/06/12 08:49:29;;;;;;;7.95;2.58;;;;;;;;;;5064372;28;20041;-66
2022/06/12 08:51:59;;;;;;;5.72;2.40;;;;;;;;;;5057685;28;20069;-66
2022/06/12 08:54:30;;;;;;;7.93;2.47;;;;;;;;;;5050946;28;20041;-65
2022/06/12 08:56:59;;;;;;;7.43;2.75;;;;;;;;;;5030455;28;20048;-65
2022/06/12 08:59:38;;;;;;;11.57;2.80;;;;;;;;;;5040084;28;20445;-66
2022/06/12 09:02:05;;;;;;;8.38;3.10;;;;;;;;;;5060187;28;20047;-65
2022/06/12 09:04:31;;;;;;;8.52;2.60;;;;;;;;;;5048352;28;20041;-64
2022/06/12 09:07:12;;;;;;;8.50;2.50;;;;;;;;;;5057169;28;20462;-64
2022/06/12 09:09:46;;;;;;;6.38;2.25;;;;;;;;;;5051099;28;20551;-64
2022/06/12 09:12:31;;;;;;;7.63;2.17;;;;;;;;;;5051327;28;20083;-64
2022/06/12 09:14:57;;;;;;;;;;;;;;;;;;5051112;28;20052;-64
2022/06/12 09:17:53;;;;;;;5.43;2.10;;;19.70;99.90;;;;;;5032688;28;19924;-64
2022/06/12 09:20:33;;;;;;;8.60;2.45;;;19.90;99.90;;;;;;5015279;28;20141;-63
2022/06/12 09:23:07;;;;;;;7.75;2.88;;;19.20;99.90;;;;;;5047167;28;20040;-63
2022/06/12 09:25:55;;;;;;;7.30;2.33;;;19.10;99.90;;;;;;5014120;28;20461;-63
2022/06/12 09:28:54;;;;;;;8.55;2.58;;;19.10;99.90;;;;;;5031618;28;20049;-64
2022/06/12 09:31:42;;;;;;;8.80;2.72;;;19.30;99.90;;;;;;5014015;28;20057;-64
2022/06/12 09:34:30;;;;;;;10.07;2.40;;;19.70;99.90;;;;;;5046412;28;20107;-63
2022/06/12 09:37:00;;;;;;;7.60;2.45;;;20.00;99.90;;;;;;5051063;28;20049;-65
2022/06/12 09:39:48;;;;;;;7.20;2.13;;;19.70;99.90;;;;;;5052312;28;20124;-64
2022/06/12 09:42:23;;;;;;;21.58;3.30;;;19.60;99.90;;;;;;5045285;28;20108;-65
2022/06/12 09:44:52;;;;;;;10.70;2.53;;;;;;;;;;5026206;28;20049;-66
2022/06/12 09:47:26;;;;;;;8.23;2.78;;;;;;;;;;5049342;28;20756;-67
2022/06/12 09:49:58;;;;;;;9.77;3.67;;;;;;;;;;5060362;28;20041;-67
2022/06/12 09:52:24;;;;;;;8.45;3.38;;;;;;;;;;5061794;28;20055;-66
2022/06/12 09:54:56;;;;;;;7.07;2.63;;;;;;;;;;5052521;28;20044;-66
2022/06/12 09:57:25;;;;;;;8.55;2.85;;;;;;;;;;5036221;28;20405;-66
2022/06/12 10:00:00;;;;;;;11.93;3.38;;;;;;;;;;5061943;28;20037;-66
2022/06/12 10:02:36;;;;;;;7.25;2.58;;;;;;;;;;5059923;28;20049;-66
2022/06/12 10:05:06;;;;;;;10.55;2.55;;;;;;;;;;5034250;28;20076;-66
2022/06/12 10:07:37;;;;;;;6.20;2.35;;;;;;;;;;5063441;28;20083;-67
2022/06/12 10:10:08;;;;;;;9.45;3.00;;;;;;;;;;5056544;28;20060;-66
2022/06/12 10:12:40;;;;;;;10.40;3.00;;;;;;;;;;5048408;28;20056;-66
2022/06/12 10:15:09;;;;;;;5.80;2.92;;;;;;;;;;5063145;28;20496;-65
2022/06/12 10:17:43;;;;;;;8.93;2.65;;;;;;;;;;5043095;28;20048;-66
2022/06/12 10:20:12;;;;;;;9.32;2.97;;;;;;;;;;5058485;28;20086;-66
2022/06/12 10:22:41;;;;;;;8.60;2.38;;;;;;;;;;5057994;28;20082;-66
2022/06/12 10:25:08;;;;;;;17.33;2.95;;;;;;;;;;5056873;28;20499;-67
2022/06/12 10:27:46;;;;;;;10.77;4.15;;;;;;;;;;5070723;28;20076;-67
2022/06/12 10:30:40;;;;;;;8.13;2.65;;;20.30;99.90;;;;;;5069019;28;20143;-68
2022/06/12 10:33:20;;;;;;;11.77;2.88;;;20.50;99.90;;;;;;5061087;28;20398;-65
2022/06/12 10:35:56;;;;;;;8.88;3.80;;;20.60;99.90;;;;;;5030968;28;20088;-66
2022/06/12 10:38:23;;;;;;;8.80;3.20;;;20.50;99.90;;;;;;5029423;28;20124;-66
2022/06/12 10:41:26;;;;;;;9.85;2.92;;;20.40;99.90;;;;;;5028077;28;20425;-65
2022/06/12 10:43:56;;;;;;;7.28;2.92;;;20.40;99.90;;;;;;5015026;28;20096;-66
2022/06/12 10:46:32;;;;;;;6.82;2.60;;;20.20;99.90;;;;;;5048144;28;20041;-66
2022/06/12 10:49:02;;;;;;;10.00;3.30;;;20.30;99.90;;;;;;5049630;28;20044;-66
2022/06/12 10:51:36;;;;;;;10.90;3.08;;;20.20;99.90;;;;;;5050311;28;20052;-66
2022/06/12 10:54:11;;;;;;;11.20;3.42;;;19.90;99.90;;;;;;5047384;28;20489;-66
2022/06/12 10:56:43;;;;;;;9.82;2.80;;;;;;;;;;5050157;28;20103;-66
2022/06/12 10:59:21;;;;;;;10.52;3.17;;;;;;;;;;5048120;28;20056;-65
2022/06/12 11:01:47;;;;;;;10.35;3.25;;;;;;;;;;5047714;28;20037;-67
2022/06/12 11:04:47;;;;;;;7.57;3.42;;;19.90;99.90;;;;;;5048511;28;20052;-66
2022/06/12 11:07:27;;;;;;;6.65;2.45;;;19.90;99.90;;;;;;5045629;28;20060;-66
2022/06/12 11:10:08;;;;;;;9.43;3.03;;;19.90;99.90;;;;;;5030984;28;20060;-65
2022/06/12 11:12:43;;;;;;;8.75;3.13;;;19.70;99.90;;;;;;5048688;28;20052;-66
2022/06/12 11:15:43;;;;;;;7.57;2.83;;;19.60;99.90;;;;;;5047773;28;20052;-67
2022/06/12 11:18:14;;;;;;;7.00;2.95;;;19.70;99.90;;;;;;5039986;28;20045;-67
2022/06/12 11:20:55;;;;;;;7.38;2.92;;;19.40;99.90;;;;;;5028506;28;20041;-67
2022/06/12 11:23:27;;;;;;;8.32;3.03;;;;;;;;;;5040339;28;20036;-66
2022/06/12 11:25:59;;;;;;;11.88;3.65;;;19.10;99.90;;;;;;5047804;28;20041;-65
2022/06/12 11:28:38;;;;;;;9.75;3.58;;;19.10;99.90;;;;;;5047868;28;20049;-66
2022/06/12 11:31:36;;;;;;;9.05;3.92;;;18.90;99.90;;;;;;5048020;28;20458;-66
2022/06/12 11:34:16;;;;;;;8.43;2.80;;;19.00;99.90;;;;;;5048462;28;20047;-66
2022/06/12 11:36:54;;;;;;;8.73;2.85;;;19.20;99.90;;;;;;5043334;28;20041;-66
2022/06/12 11:39:27;;;;;;;11.85;3.30;;;19.40;99.90;;;;;;5033655;28;20045;-66
2022/06/12 11:42:13;;;;;;;8.90;3.00;;;19.70;99.90;;;;;;5029055;28;20129;-66
2022/06/12 11:44:57;;;;;;;6.68;2.50;;;20.00;99.90;;;;;;5039032;28;20544;-66
2022/06/12 11:47:39;;;;;;;9.90;2.63;;;20.20;99.90;;;;;;5059633;28;20052;-67
2022/06/12 11:50:29;;;;;;;6.88;2.38;;;20.20;99.90;;;;;;5043398;28;20314;-66
2022/06/12 11:53:08;;;;;;;8.30;2.25;;;20.20;99.90;;;;;;5056551;28;20087;-67
2022/06/12 11:55:50;;;;;;;6.75;2.38;;;20.30;99.90;;;;;;5064692;28;20044;-66
2022/06/12 11:58:40;;;;;;;11.25;3.85;;;20.30;99.90;;;;;;5040789;28;20044;-66
2022/06/12 12:01:17;;;;;;;11.30;2.90;;;20.40;99.90;;;;;;5053674;28;20429;-66
2022/06/12 12:03:49;;;;;;;9.35;2.35;;;20.40;99.90;;;;;;5065309;28;20048;-66
2022/06/12 12:06:32;;;;;;;7.85;2.38;;;20.50;99.90;;;;;;5067150;28;20048;-66
2022/06/12 12:09:13;;;;;;;9.05;2.90;;;20.50;99.70;;;;;;5067302;28;20050;-66
2022/06/12 12:11:45;;;;;;;6.70;2.40;;;20.30;99.90;;;;;;5045532;28;20099;-66
2022/06/12 12:14:19;;;;;;;7.43;3.08;;;19.90;99.90;;;;;;5036144;28;20052;-66
2022/06/12 12:16:58;;;;;;;8.05;2.53;;;19.70;99.90;;;;;;5027912;28;20060;-65
2022/06/12 12:19:38;;;;;;;6.57;2.25;;;19.50;99.90;;;;;;5027566;28;20048;-67
2022/06/12 12:22:28;;;;;;;8.30;2.80;;;19.60;99.90;;;;;;5010899;28;20089;-66
2022/06/12 12:25:02;;;;;;;5.43;2.40;;;19.80;99.90;;;;;;5026773;28;20080;-65
2022/06/12 12:27:50;;;;;;;8.55;2.20;;;20.00;99.90;;;;;;5027956;28;20053;-66
2022/06/12 12:30:24;;;;;;;10.43;2.88;;;20.20;99.90;;;;;;5029753;28;20061;-66
2022/06/12 12:32:53;;;;;;;7.70;2.38;;;20.30;99.90;;;;;;5045050;28;20497;-67
2022/06/12 12:41:13;;;;;;;8.93;2.92;;;;;;;;;;5042868;28;20038;-63
2022/06/12 12:44:00;;;;;;;6.93;2.70;;;18.60;99.90;;;;;;5039723;28;20045;-64
2022/06/12 12:46:46;;;;;;;8.63;2.47;;;20.40;99.90;;;;;;5046871;28;20234;-63
2022/06/12 12:49:23;;;;;;;6.93;2.83;;;20.50;99.80;;;;;;5047428;28;20048;-66
2022/06/12 12:51:50;;;;;;;6.45;2.40;;;20.40;99.60;;;;;;5030354;28;20485;-67
2022/06/12 12:54:19;;;;;;;9.73;3.17;;;20.10;99.10;;;;;;5046783;28;20044;-64
2022/06/12 12:57:02;;;;;;;8.57;2.95;;;19.80;99.90;;;;;;5047226;28;20090;-66
2022/06/12 12:59:42;;;;;;;10.43;4.10;;;19.20;99.90;;;;;;5037282;28;20048;-66
2022/06/12 13:02:22;;;;;;;9.60;3.35;;;19.20;99.90;;;;;;5050970;28;20433;-67
2022/06/12 13:04:49;;;;;;;11.57;3.88;;;;;;;;;;5050808;28;20120;-66
2022/06/12 13:07:34;;;;;;;10.95;3.60;;;;;;;;;;5043768;28;20458;-68
2022/06/12 13:10:00;;;;;;;;;;;;;;;;;;5045981;28;20063;-67
2022/06/12 13:12:26;;;;;;;11.65;3.28;;;;;;;;;;5054735;28;20385;-67
2022/06/12 13:15:01;;;;;;;8.55;3.10;;;;;;;;;;5041773;28;20041;-68
2022/06/12 13:17:27;;;;;;;8.95;3.00;;;;;;;;;;5046750;28;20047;-65
2022/06/12 13:20:12;;;;;;;10.38;3.05;;;;;;;;;;5036863;28;20040;-68
2022/06/12 13:22:46;;;;;;;10.18;3.30;;;;;;;;;;5032270;28;20038;-69
2022/06/12 13:25:17;;;;;;;7.78;3.08;;;;;;;;;;5033377;28;20054;-69
2022/06/12 13:27:54;;;;;;;8.68;3.42;;;;;;;;;;5032312;28;20072;-69
2022/06/12 13:30:22;;;;;;;10.50;3.58;;;;;;;;;;5033364;28;20054;-68
2022/06/12 13:32:48;;;;;;;8.20;4.45;;;;;;;;;;5016462;28;20053;-68
2022/06/12 13:35:37;;;;;;;10.02;3.97;;;;;;;;;;5033575;28;20486;-69
2022/06/12 13:38:04;;;;;;;10.43;3.85;;;;;;;;;;5028354;28;20569;-69
2022/06/12 13:40:37;;;;;;;11.70;3.67;;;;;;;;;;5016600;28;20041;-68
2022/06/12 13:43:19;;;;;;;13.15;4.50;;;;;;;;;;5033447;28;20053;-68
2022/06/12 13:45:49;;;;;;;13.00;4.53;;;;;;;;;;5032805;28;20409;-68
2022/06/12 13:48:27;;;;;;;8.15;3.92;;;;;;;;;;5033146;28;20478;-68
2022/06/12 13:50:57;;;;;;;15.02;4.68;;;;;;;;;;5032800;28;20041;-68
2022/06/12 13:53:23;;;;;;;18.05;4.60;;;;;;;;;;5034462;28;20041;-69
2022/06/12 13:55:49;;;;;;;13.35;4.80;;;;;;;;;;5031912;28;20380;-68
2022/06/12 13:58:20;;;;;;;12.05;4.10;;;;;;;;;;5034070;28;20099;-68